createdAt,value
2018-07-11T00:00:29.202Z,0.00
2018-07-11T00:01:29.234Z,0.00
2018-07-11T00:02:29.252Z,0.00
2018-07-11T00:03:29.278Z,0.00
2018-07-11T00:04:29.300Z,0.00
2018-07-11T00:05:29.332Z,0.00
2018-07-11T00:06:29.351Z,0.00
2018-07-11T00:07:29.370Z,0.00
2018-07-11T00:08:29.398Z,0.00
2018-07-11T00:09:29.425Z,0.00
2018-07-11T00:10:29.450Z,0.00
2018-07-11T00:11:29.477Z,0.00
2018-07-11T00:12:29.496Z,0.00
2018-07-11T00:13:29.522Z,0.00
2018-07-11T00:14:29.542Z,0.00
2018-07-11T00:15:29.575Z,0.00
2018-07-11T00:16:29.592Z,0.00
2018-07-11T00:17:29.616Z,0.00
2018-07-11T00:18:29.647Z,0.00
2018-07-11T00:19:29.669Z,0.00
2018-07-11T00:20:29.691Z,0.00
2018-07-11T00:21:29.717Z,0.00
2018-07-11T00:22:29.744Z,0.00
2018-07-11T00:23:29.767Z,0.00
2018-07-11T00:24:29.798Z,0.00
2018-07-11T00:25:29.821Z,0.00
2018-07-11T00:26:29.836Z,0.00
2018-07-11T00:27:29.867Z,0.00
2018-07-11T00:28:29.887Z,0.00
2018-07-11T00:29:29.923Z,0.00
2018-07-11T00:30:29.939Z,0.00
2018-07-11T00:31:29.965Z,0.00
2018-07-11T00:32:29.987Z,0.00
2018-07-11T00:33:30.015Z,0.00
2018-07-11T00:34:30.038Z,0.00
2018-07-11T00:35:30.064Z,0.00
2018-07-11T00:36:30.086Z,0.00
2018-07-11T00:37:30.347Z,0.00
2018-07-11T00:38:30.130Z,0.00
2018-07-11T00:39:30.159Z,0.00
2018-07-11T00:40:30.184Z,0.00
2018-07-11T00:41:30.207Z,0.00
2018-07-11T00:42:30.229Z,0.00
2018-07-11T00:43:30.252Z,0.00
2018-07-11T00:44:30.279Z,0.00
2018-07-11T00:45:30.302Z,0.00
2018-07-11T00:46:30.324Z,0.00
2018-07-11T00:47:30.362Z,0.00
2018-07-11T00:48:30.375Z,0.00
2018-07-11T00:49:30.404Z,0.00
2018-07-11T00:50:30.432Z,0.00
2018-07-11T00:51:30.452Z,0.00
2018-07-11T00:52:30.475Z,0.00
2018-07-11T00:53:30.504Z,0.00
2018-07-11T00:54:30.529Z,0.00
2018-07-11T00:55:30.552Z,0.00
2018-07-11T00:56:30.579Z,0.00
2018-07-11T00:57:30.603Z,0.00
2018-07-11T00:58:30.616Z,0.00
2018-07-11T00:59:30.656Z,0.00
2018-07-11T01:00:30.670Z,0.00
2018-07-11T01:01:30.699Z,0.00
2018-07-11T01:02:30.724Z,0.00
2018-07-11T01:03:30.741Z,0.00
2018-07-11T01:04:30.769Z,0.00
2018-07-11T01:05:30.791Z,0.00
2018-07-11T01:06:30.817Z,0.00
2018-07-11T01:07:30.842Z,0.00
2018-07-11T01:08:30.865Z,0.00
2018-07-11T01:09:30.891Z,0.00
2018-07-11T01:10:30.913Z,0.00
2018-07-11T01:11:30.939Z,0.00
2018-07-11T01:12:30.964Z,0.00
2018-07-11T01:13:30.990Z,0.00
2018-07-11T01:14:31.016Z,0.00
2018-07-11T01:15:31.038Z,0.00
2018-07-11T01:16:31.060Z,0.00
2018-07-11T01:17:31.092Z,0.00
2018-07-11T01:18:31.110Z,0.00
2018-07-11T01:19:31.136Z,0.00
2018-07-11T01:20:31.160Z,0.00
2018-07-11T01:21:31.184Z,0.00
2018-07-11T01:22:31.209Z,0.00
2018-07-11T01:23:31.234Z,0.00
2018-07-11T01:24:31.260Z,0.00
2018-07-11T01:25:31.284Z,0.00
2018-07-11T01:26:31.309Z,0.00
2018-07-11T01:27:31.328Z,0.00
2018-07-11T01:28:31.365Z,0.00
2018-07-11T01:29:31.378Z,0.00
2018-07-11T01:30:31.406Z,0.00
2018-07-11T01:31:31.431Z,0.00
2018-07-11T01:32:31.459Z,0.00
2018-07-11T01:33:31.486Z,0.00
2018-07-11T01:34:31.504Z,0.00
2018-07-11T01:35:31.530Z,0.00
2018-07-11T01:36:31.556Z,0.00
2018-07-11T01:37:31.578Z,0.00
2018-07-11T01:38:31.600Z,0.00
2018-07-11T01:39:31.652Z,0.00
2018-07-11T01:40:31.686Z,0.00
2018-07-11T01:41:31.680Z,0.00
2018-07-11T01:42:31.703Z,0.00
2018-07-11T01:43:31.723Z,0.00
2018-07-11T01:44:31.749Z,0.00
2018-07-11T01:45:31.773Z,0.00
2018-07-11T01:46:31.801Z,0.00
2018-07-11T01:47:31.828Z,0.00
2018-07-11T01:48:31.851Z,0.00
2018-07-11T01:49:31.869Z,0.00
2018-07-11T01:50:31.899Z,0.00
2018-07-11T01:51:31.921Z,0.00
2018-07-11T01:52:31.949Z,0.00
2018-07-11T01:53:31.968Z,0.00
2018-07-11T01:54:32.001Z,0.00
2018-07-11T01:55:32.019Z,0.00
2018-07-11T01:56:32.046Z,0.00
2018-07-11T01:57:32.072Z,0.00
2018-07-11T01:58:32.094Z,0.00
2018-07-11T01:59:32.113Z,0.00
2018-07-11T02:00:32.143Z,0.00
2018-07-11T02:01:32.169Z,0.00
2018-07-11T02:02:32.188Z,0.00
2018-07-11T02:03:32.219Z,0.00
2018-07-11T02:04:32.237Z,0.00
2018-07-11T02:05:32.268Z,0.00
2018-07-11T02:06:32.295Z,0.00
2018-07-11T02:07:32.312Z,0.00
2018-07-11T02:08:32.336Z,0.00
2018-07-11T02:09:32.366Z,0.00
2018-07-11T02:10:32.382Z,0.00
2018-07-11T02:11:32.411Z,0.00
2018-07-11T02:12:32.437Z,0.00
2018-07-11T02:13:32.459Z,0.00
2018-07-11T02:14:32.485Z,0.00
2018-07-11T02:15:32.507Z,0.00
2018-07-11T02:16:32.533Z,0.00
2018-07-11T02:17:32.557Z,0.00
2018-07-11T02:18:32.585Z,0.00
2018-07-11T02:19:32.609Z,0.00
2018-07-11T02:20:32.629Z,0.00
2018-07-11T02:21:32.661Z,0.00
2018-07-11T02:22:32.680Z,0.00
2018-07-11T02:23:32.708Z,0.00
2018-07-11T02:24:32.733Z,0.00
2018-07-11T02:25:32.760Z,0.00
2018-07-11T02:26:32.778Z,0.00
2018-07-11T02:27:32.804Z,0.00
2018-07-11T02:28:32.827Z,0.00
2018-07-11T02:29:32.855Z,0.00
2018-07-11T02:30:32.881Z,0.00
2018-07-11T02:31:32.900Z,0.00
2018-07-11T02:32:32.928Z,0.00
2018-07-11T02:33:32.959Z,0.00
2018-07-11T02:34:32.975Z,0.00
2018-07-11T02:35:33.001Z,0.00
2018-07-11T02:36:33.023Z,0.00
2018-07-11T02:37:33.056Z,0.00
2018-07-11T02:38:33.084Z,0.00
2018-07-11T02:39:33.099Z,0.00
2018-07-11T02:40:33.126Z,0.00
2018-07-11T02:41:33.148Z,0.00
2018-07-11T02:42:33.171Z,0.00
2018-07-11T02:43:33.199Z,0.00
2018-07-11T02:44:33.222Z,0.00
2018-07-11T02:45:33.250Z,0.00
2018-07-11T02:46:33.269Z,0.00
2018-07-11T02:47:33.292Z,0.00
2018-07-11T02:48:33.315Z,0.00
2018-07-11T02:49:33.341Z,0.00
2018-07-11T02:50:33.369Z,0.00
2018-07-11T02:51:33.387Z,0.00
2018-07-11T02:52:33.416Z,0.00
2018-07-11T02:53:33.438Z,0.00
2018-07-11T02:54:33.465Z,0.00
2018-07-11T02:55:33.502Z,0.00
2018-07-11T02:56:33.514Z,0.00
2018-07-11T02:57:33.543Z,0.00
2018-07-11T02:58:33.565Z,0.00
2018-07-11T02:59:33.590Z,0.00
2018-07-11T03:00:33.605Z,0.00
2018-07-11T03:01:33.640Z,0.00
2018-07-11T03:02:33.656Z,0.00
2018-07-11T03:03:33.683Z,0.00
2018-07-11T03:04:33.711Z,0.00
2018-07-11T03:05:33.732Z,5.63
2018-07-11T03:06:33.753Z,5.63
2018-07-11T03:07:33.779Z,5.63
2018-07-11T03:08:33.811Z,5.63
2018-07-11T03:09:33.831Z,5.63
2018-07-11T03:10:33.865Z,5.63
2018-07-11T03:11:33.883Z,5.63
2018-07-11T03:12:33.906Z,5.63
2018-07-11T03:13:33.927Z,5.63
2018-07-11T03:14:33.957Z,5.63
2018-07-11T03:15:33.979Z,5.63
2018-07-11T03:16:33.999Z,5.63
2018-07-11T03:17:34.025Z,5.63
2018-07-11T03:18:34.046Z,5.63
2018-07-11T03:19:34.074Z,5.63
2018-07-11T03:20:34.104Z,11.25
2018-07-11T03:21:34.126Z,11.25
2018-07-11T03:22:34.145Z,11.25
2018-07-11T03:23:34.175Z,11.25
2018-07-11T03:24:34.197Z,11.25
2018-07-11T03:25:34.223Z,11.25
2018-07-11T03:26:34.244Z,11.25
2018-07-11T03:27:34.265Z,11.25
2018-07-11T03:28:34.294Z,11.25
2018-07-11T03:29:34.320Z,11.25
2018-07-11T03:30:34.340Z,11.25
2018-07-11T03:31:34.365Z,11.25
2018-07-11T03:32:34.495Z,11.25
2018-07-11T03:33:34.420Z,11.25
2018-07-11T03:34:34.439Z,11.25
2018-07-11T03:35:34.517Z,16.88
2018-07-11T03:36:34.489Z,16.88
2018-07-11T03:37:34.519Z,16.88
2018-07-11T03:38:34.541Z,16.88
2018-07-11T03:39:34.561Z,16.88
2018-07-11T03:40:34.588Z,11.25
2018-07-11T03:41:34.618Z,16.88
2018-07-11T03:42:34.635Z,16.88
2018-07-11T03:43:34.665Z,22.50
2018-07-11T03:44:34.684Z,22.50
2018-07-11T03:45:34.705Z,22.50
2018-07-11T03:46:34.737Z,22.50
2018-07-11T03:47:34.758Z,22.50
2018-07-11T03:48:34.787Z,22.50
2018-07-11T03:49:34.802Z,22.50
2018-07-11T03:50:34.835Z,16.88
2018-07-11T03:51:34.859Z,16.88
2018-07-11T03:52:34.880Z,16.88
2018-07-11T03:53:34.903Z,11.25
2018-07-11T03:54:34.926Z,11.25
2018-07-11T03:55:34.957Z,11.25
2018-07-11T03:56:34.975Z,16.88
2018-07-11T03:57:35.005Z,16.88
2018-07-11T03:58:35.031Z,16.88
2018-07-11T03:59:35.049Z,16.88
2018-07-11T04:00:35.075Z,11.25
2018-07-11T04:01:35.105Z,16.88
2018-07-11T04:02:35.117Z,16.88
2018-07-11T04:03:35.148Z,16.88
2018-07-11T04:04:35.166Z,16.88
2018-07-11T04:05:35.197Z,11.25
2018-07-11T04:06:35.220Z,16.88
2018-07-11T04:07:35.240Z,16.88
2018-07-11T04:08:35.268Z,16.88
2018-07-11T04:09:35.291Z,11.25
2018-07-11T04:10:35.315Z,11.25
2018-07-11T04:11:35.338Z,11.25
2018-07-11T04:12:35.366Z,11.25
2018-07-11T04:13:35.386Z,5.63
2018-07-11T04:14:35.409Z,5.63
2018-07-11T04:15:35.433Z,11.25
2018-07-11T04:16:35.459Z,16.88
2018-07-11T04:17:35.490Z,22.50
2018-07-11T04:18:35.513Z,28.13
2018-07-11T04:19:35.527Z,28.13
2018-07-11T04:20:35.552Z,28.13
2018-07-11T04:21:35.579Z,22.50
2018-07-11T04:22:35.606Z,22.50
2018-07-11T04:23:35.625Z,22.50
2018-07-11T04:24:35.650Z,22.50
2018-07-11T04:25:35.675Z,28.13
2018-07-11T04:26:35.701Z,28.13
2018-07-11T04:27:35.720Z,28.13
2018-07-11T04:28:35.746Z,22.50
2018-07-11T04:29:35.763Z,22.50
2018-07-11T04:30:35.797Z,22.50
2018-07-11T04:31:35.810Z,22.50
2018-07-11T04:32:35.840Z,28.13
2018-07-11T04:33:35.867Z,28.13
2018-07-11T04:34:35.946Z,22.50
2018-07-11T04:35:35.909Z,22.50
2018-07-11T04:36:35.927Z,22.50
2018-07-11T04:37:35.955Z,22.50
2018-07-11T04:38:35.976Z,22.50
2018-07-11T04:39:36.007Z,22.50
2018-07-11T04:40:36.023Z,33.75
2018-07-11T04:41:36.047Z,28.13
2018-07-11T04:42:36.173Z,22.50
2018-07-11T04:43:36.092Z,16.88
2018-07-11T04:44:36.121Z,11.25
2018-07-11T04:45:36.142Z,11.25
2018-07-11T04:46:36.172Z,5.63
2018-07-11T04:47:36.191Z,5.63
2018-07-11T04:48:36.211Z,11.25
2018-07-11T04:49:36.237Z,16.88
2018-07-11T04:50:36.266Z,16.88
2018-07-11T04:51:36.293Z,16.88
2018-07-11T04:52:36.370Z,16.88
2018-07-11T04:53:36.331Z,33.75
2018-07-11T04:54:36.357Z,33.75
2018-07-11T04:55:36.384Z,33.75
2018-07-11T04:56:36.401Z,39.38
2018-07-11T04:57:36.427Z,22.50
2018-07-11T04:58:36.453Z,22.50
2018-07-11T04:59:36.471Z,39.38
2018-07-11T05:00:36.497Z,56.25
2018-07-11T05:01:36.523Z,56.25
2018-07-11T05:02:36.543Z,45.00
2018-07-11T05:03:36.565Z,39.38
2018-07-11T05:04:36.615Z,33.75
2018-07-11T05:05:36.617Z,39.38
2018-07-11T05:06:36.645Z,39.38
2018-07-11T05:07:36.677Z,39.38
2018-07-11T05:08:36.691Z,39.38
2018-07-11T05:09:36.709Z,39.38
2018-07-11T05:10:36.731Z,50.63
2018-07-11T05:11:36.764Z,50.63
2018-07-11T05:12:36.782Z,45.00
2018-07-11T05:13:36.805Z,39.38
2018-07-11T05:14:36.831Z,33.75
2018-07-11T05:15:36.860Z,22.50
2018-07-11T05:16:36.879Z,22.50
2018-07-11T05:17:36.907Z,28.13
2018-07-11T05:18:36.927Z,28.13
2018-07-11T05:19:36.954Z,33.75
2018-07-11T05:20:36.979Z,45.00
2018-07-11T05:21:36.997Z,61.88
2018-07-11T05:22:37.023Z,73.13
2018-07-11T05:23:37.043Z,84.38
2018-07-11T05:24:37.075Z,95.63
2018-07-11T05:25:37.097Z,106.88
2018-07-11T05:26:37.117Z,112.50
2018-07-11T05:27:37.172Z,135.00
2018-07-11T05:28:37.163Z,140.63
2018-07-11T05:29:37.192Z,151.88
2018-07-11T05:30:37.217Z,185.63
2018-07-11T05:31:37.242Z,219.38
2018-07-11T05:32:37.263Z,230.63
2018-07-11T05:33:37.289Z,253.13
2018-07-11T05:34:37.316Z,241.88
2018-07-11T05:35:37.333Z,208.13
2018-07-11T05:36:37.363Z,196.88
2018-07-11T05:37:37.381Z,208.13
2018-07-11T05:38:37.404Z,140.63
2018-07-11T05:39:37.434Z,135.00
2018-07-11T05:40:37.455Z,191.25
2018-07-11T05:41:37.482Z,208.13
2018-07-11T05:42:37.501Z,196.88
2018-07-11T05:43:37.527Z,196.88
2018-07-11T05:44:37.547Z,208.13
2018-07-11T05:45:37.575Z,202.50
2018-07-11T05:46:37.597Z,208.13
2018-07-11T05:47:37.625Z,185.63
2018-07-11T05:48:37.653Z,174.38
2018-07-11T05:49:37.681Z,163.13
2018-07-11T05:50:37.709Z,146.25
2018-07-11T05:51:37.719Z,146.25
2018-07-11T05:52:37.758Z,151.88
2018-07-11T05:53:37.771Z,157.50
2018-07-11T05:54:37.799Z,123.75
2018-07-11T05:55:37.880Z,112.50
2018-07-11T05:56:37.856Z,101.25
2018-07-11T05:57:37.865Z,95.63
2018-07-11T05:58:37.888Z,90.00
2018-07-11T05:59:37.918Z,73.13
2018-07-11T06:00:37.941Z,78.75
2018-07-11T06:01:37.963Z,73.13
2018-07-11T06:02:37.997Z,56.25
2018-07-11T06:03:38.015Z,56.25
2018-07-11T06:04:38.041Z,61.88
2018-07-11T06:05:38.060Z,73.13
2018-07-11T06:06:38.085Z,73.13
2018-07-11T06:07:38.107Z,78.75
2018-07-11T06:08:38.135Z,78.75
2018-07-11T06:09:38.160Z,78.75
2018-07-11T06:10:38.178Z,73.13
2018-07-11T06:11:38.207Z,61.88
2018-07-11T06:12:38.230Z,56.25
2018-07-11T06:13:38.312Z,61.88
2018-07-11T06:14:38.277Z,73.13
2018-07-11T06:15:38.303Z,73.13
2018-07-11T06:16:38.329Z,78.75
2018-07-11T06:17:38.356Z,78.75
2018-07-11T06:18:38.378Z,78.75
2018-07-11T06:19:38.398Z,90.00
2018-07-11T06:20:38.430Z,95.63
2018-07-11T06:21:38.447Z,101.25
2018-07-11T06:22:38.477Z,90.00
2018-07-11T06:23:38.507Z,90.00
2018-07-11T06:24:38.520Z,84.38
2018-07-11T06:25:38.548Z,90.00
2018-07-11T06:26:38.573Z,95.63
2018-07-11T06:27:38.595Z,101.25
2018-07-11T06:28:38.623Z,95.63
2018-07-11T06:29:38.647Z,95.63
2018-07-11T06:30:38.669Z,95.63
2018-07-11T06:31:38.693Z,90.00
2018-07-11T06:32:38.719Z,101.25
2018-07-11T06:33:38.801Z,106.88
2018-07-11T06:34:38.766Z,118.13
2018-07-11T06:35:38.790Z,129.38
2018-07-11T06:36:38.810Z,106.88
2018-07-11T06:37:38.839Z,84.38
2018-07-11T06:38:38.864Z,78.75
2018-07-11T06:39:38.884Z,78.75
2018-07-11T06:40:38.906Z,90.00
2018-07-11T06:41:38.933Z,67.50
2018-07-11T06:42:38.959Z,61.88
2018-07-11T06:43:38.987Z,84.38
2018-07-11T06:44:39.015Z,95.63
2018-07-11T06:45:39.031Z,101.25
2018-07-11T06:46:39.058Z,90.00
2018-07-11T06:47:39.080Z,78.75
2018-07-11T06:48:39.110Z,90.00
2018-07-11T06:49:39.127Z,101.25
2018-07-11T06:50:39.146Z,101.25
2018-07-11T06:51:39.184Z,118.13
2018-07-11T06:52:39.206Z,129.38
2018-07-11T06:53:39.250Z,146.25
2018-07-11T06:54:39.245Z,151.88
2018-07-11T06:55:39.274Z,146.25
2018-07-11T06:56:39.298Z,157.50
2018-07-11T06:57:39.346Z,163.13
2018-07-11T06:58:39.346Z,180.00
2018-07-11T06:59:39.370Z,236.25
2018-07-11T07:00:39.394Z,230.63
2018-07-11T07:01:39.418Z,230.63
2018-07-11T07:02:39.440Z,241.88
2018-07-11T07:03:39.557Z,219.38
2018-07-11T07:04:39.497Z,185.63
2018-07-11T07:05:39.516Z,196.88
2018-07-11T07:06:39.546Z,191.25
2018-07-11T07:07:39.574Z,191.25
2018-07-11T07:08:39.585Z,123.75
2018-07-11T07:09:39.611Z,129.38
2018-07-11T07:10:39.647Z,140.63
2018-07-11T07:11:39.674Z,196.88
2018-07-11T07:12:39.679Z,202.50
2018-07-11T07:13:39.713Z,253.13
2018-07-11T07:14:39.732Z,281.25
2018-07-11T07:15:39.759Z,281.25
2018-07-11T07:16:39.814Z,270.00
2018-07-11T07:17:39.814Z,241.88
2018-07-11T07:18:39.828Z,225.00
2018-07-11T07:19:39.862Z,247.50
2018-07-11T07:20:39.881Z,298.13
2018-07-11T07:21:39.910Z,320.63
2018-07-11T07:22:39.931Z,320.63
2018-07-11T07:23:39.950Z,298.13
2018-07-11T07:24:39.980Z,320.63
2018-07-11T07:25:40.013Z,292.50
2018-07-11T07:26:40.029Z,281.25
2018-07-11T07:27:40.061Z,281.25
2018-07-11T07:28:40.077Z,213.75
2018-07-11T07:29:40.100Z,213.75
2018-07-11T07:30:40.123Z,191.25
2018-07-11T07:31:40.147Z,247.50
2018-07-11T07:32:40.184Z,264.38
2018-07-11T07:33:40.196Z,225.00
2018-07-11T07:34:40.260Z,196.88
2018-07-11T07:35:40.245Z,196.88
2018-07-11T07:36:40.312Z,146.25
2018-07-11T07:37:40.301Z,146.25
2018-07-11T07:38:40.319Z,118.13
2018-07-11T07:39:40.363Z,106.88
2018-07-11T07:40:40.371Z,135.00
2018-07-11T07:41:40.389Z,151.88
2018-07-11T07:42:40.415Z,196.88
2018-07-11T07:43:40.441Z,253.13
2018-07-11T07:44:40.465Z,270.00
2018-07-11T07:45:40.496Z,292.50
2018-07-11T07:46:40.516Z,315.00
2018-07-11T07:47:40.540Z,326.25
2018-07-11T07:48:40.566Z,348.75
2018-07-11T07:49:40.588Z,348.75
2018-07-11T07:50:40.617Z,337.50
2018-07-11T07:51:40.638Z,326.25
2018-07-11T07:52:40.662Z,298.13
2018-07-11T07:53:40.689Z,275.63
2018-07-11T07:54:40.715Z,264.38
2018-07-11T07:55:40.743Z,247.50
2018-07-11T07:56:40.761Z,213.75
2018-07-11T07:57:40.784Z,191.25
2018-07-11T07:58:40.807Z,202.50
2018-07-11T07:59:40.842Z,219.38
2018-07-11T08:00:40.865Z,253.13
2018-07-11T08:01:40.883Z,281.25
2018-07-11T08:02:40.906Z,320.63
2018-07-11T08:03:40.930Z,348.75
2018-07-11T08:04:40.963Z,365.63
2018-07-11T08:05:40.977Z,371.25
2018-07-11T08:06:41.004Z,371.25
2018-07-11T08:07:41.033Z,371.25
2018-07-11T08:08:41.054Z,365.63
2018-07-11T08:09:41.082Z,365.63
2018-07-11T08:10:41.104Z,365.63
2018-07-11T08:11:41.132Z,376.88
2018-07-11T08:12:41.225Z,376.88
2018-07-11T08:13:41.175Z,376.88
2018-07-11T08:14:41.207Z,382.50
2018-07-11T08:15:41.227Z,388.13
2018-07-11T08:16:41.258Z,388.13
2018-07-11T08:17:41.281Z,382.50
2018-07-11T08:18:41.304Z,376.88
2018-07-11T08:19:41.341Z,405.00
2018-07-11T08:20:41.347Z,427.50
2018-07-11T08:21:41.383Z,438.75
2018-07-11T08:22:41.404Z,416.25
2018-07-11T08:23:41.427Z,410.63
2018-07-11T08:24:41.450Z,405.00
2018-07-11T08:25:41.469Z,399.38
2018-07-11T08:26:41.504Z,382.50
2018-07-11T08:27:41.525Z,331.88
2018-07-11T08:28:41.551Z,286.88
2018-07-11T08:29:41.573Z,270.00
2018-07-11T08:30:41.605Z,253.13
2018-07-11T08:31:41.625Z,230.63
2018-07-11T08:32:41.645Z,258.75
2018-07-11T08:33:41.674Z,337.50
2018-07-11T08:34:41.725Z,270.00
2018-07-11T08:35:41.724Z,236.25
2018-07-11T08:36:41.746Z,247.50
2018-07-11T08:37:41.774Z,264.38
2018-07-11T08:38:41.793Z,275.63
2018-07-11T08:39:41.827Z,360.00
2018-07-11T08:40:41.848Z,444.38
2018-07-11T08:41:41.868Z,433.13
2018-07-11T08:42:41.895Z,489.38
2018-07-11T08:43:41.922Z,624.38
2018-07-11T08:44:41.944Z,506.25
2018-07-11T08:45:41.976Z,478.13
2018-07-11T08:46:41.997Z,551.25
2018-07-11T08:47:42.022Z,731.25
2018-07-11T08:48:42.042Z,781.88
2018-07-11T08:49:42.070Z,652.50
2018-07-11T08:50:42.092Z,787.50
2018-07-11T08:51:42.118Z,900.00
2018-07-11T08:52:42.141Z,950.63
2018-07-11T08:53:42.176Z,900.00
2018-07-11T08:54:42.198Z,877.50
2018-07-11T08:55:42.216Z,838.13
2018-07-11T08:56:42.247Z,781.88
2018-07-11T08:57:42.268Z,630.00
2018-07-11T08:58:42.294Z,596.25
2018-07-11T08:59:42.324Z,607.50
2018-07-11T09:00:42.343Z,523.13
2018-07-11T09:01:42.377Z,579.38
2018-07-11T09:02:42.436Z,635.63
2018-07-11T09:03:42.421Z,590.63
2018-07-11T09:04:42.452Z,641.25
2018-07-11T09:05:42.473Z,562.50
2018-07-11T09:06:42.509Z,585.00
2018-07-11T09:07:42.526Z,669.38
2018-07-11T09:08:42.552Z,607.50
2018-07-11T09:09:42.580Z,585.00
2018-07-11T09:10:42.622Z,500.63
2018-07-11T09:11:42.628Z,556.88
2018-07-11T09:12:42.651Z,551.25
2018-07-11T09:13:42.684Z,489.38
2018-07-11T09:14:42.703Z,511.88
2018-07-11T09:15:42.732Z,551.25
2018-07-11T09:16:42.753Z,472.50
2018-07-11T09:17:42.783Z,461.25
2018-07-11T09:18:42.807Z,478.13
2018-07-11T09:19:42.830Z,466.88
2018-07-11T09:20:42.863Z,461.25
2018-07-11T09:21:42.884Z,478.13
2018-07-11T09:22:42.904Z,461.25
2018-07-11T09:23:42.935Z,568.13
2018-07-11T09:24:42.966Z,590.63
2018-07-11T09:25:42.985Z,691.88
2018-07-11T09:26:43.012Z,731.25
2018-07-11T09:27:43.037Z,646.88
2018-07-11T09:28:43.066Z,573.75
2018-07-11T09:29:43.086Z,601.88
2018-07-11T09:30:43.112Z,669.38
2018-07-11T09:31:43.137Z,753.75
2018-07-11T09:32:43.168Z,770.63
2018-07-11T09:33:43.201Z,759.38
2018-07-11T09:34:43.217Z,770.63
2018-07-11T09:35:43.248Z,787.50
2018-07-11T09:36:43.268Z,781.88
2018-07-11T09:37:43.319Z,781.88
2018-07-11T09:38:43.323Z,765.00
2018-07-11T09:39:43.347Z,765.00
2018-07-11T09:40:43.371Z,714.38
2018-07-11T09:41:43.399Z,680.63
2018-07-11T09:42:43.426Z,675.00
2018-07-11T09:43:43.451Z,607.50
2018-07-11T09:44:43.475Z,573.75
2018-07-11T09:45:43.505Z,562.50
2018-07-11T09:46:43.528Z,545.63
2018-07-11T09:47:43.550Z,495.00
2018-07-11T09:48:43.580Z,466.88
2018-07-11T09:49:43.605Z,421.88
2018-07-11T09:50:43.630Z,410.63
2018-07-11T09:51:43.657Z,365.63
2018-07-11T09:52:43.682Z,343.13
2018-07-11T09:53:43.712Z,303.75
2018-07-11T09:54:43.734Z,270.00
2018-07-11T09:55:43.760Z,213.75
2018-07-11T09:56:43.784Z,140.63
2018-07-11T09:57:43.838Z,112.50
2018-07-11T09:58:43.839Z,123.75
2018-07-11T09:59:43.860Z,129.38
2018-07-11T10:00:43.884Z,135.00
2018-07-11T10:01:43.914Z,129.38
2018-07-11T10:02:43.938Z,129.38
2018-07-11T10:03:43.962Z,123.75
2018-07-11T10:04:43.992Z,129.38
2018-07-11T10:05:44.008Z,146.25
2018-07-11T10:06:44.029Z,151.88
2018-07-11T10:07:44.066Z,135.00
2018-07-11T10:08:44.086Z,123.75
2018-07-11T10:09:44.110Z,118.13
2018-07-11T10:10:44.134Z,112.50
2018-07-11T10:11:44.159Z,101.25
2018-07-11T10:12:44.182Z,90.00
2018-07-11T10:13:44.221Z,90.00
2018-07-11T10:14:44.239Z,95.63
2018-07-11T10:15:44.260Z,112.50
2018-07-11T10:16:44.288Z,163.13
2018-07-11T10:17:44.310Z,258.75
2018-07-11T10:18:44.336Z,421.88
2018-07-11T10:19:44.355Z,596.25
2018-07-11T10:20:44.378Z,742.50
2018-07-11T10:21:44.453Z,883.13
2018-07-11T10:22:44.434Z,990.00
2018-07-11T10:23:44.454Z,1063.13
2018-07-11T10:24:44.476Z,1136.25
2018-07-11T10:25:44.508Z,1209.38
2018-07-11T10:26:44.530Z,1243.13
2018-07-11T10:27:44.554Z,1293.75
2018-07-11T10:28:44.583Z,1344.38
2018-07-11T10:29:44.607Z,1378.13
2018-07-11T10:30:44.628Z,1366.88
2018-07-11T10:31:44.661Z,1383.75
2018-07-11T10:32:44.681Z,1389.38
2018-07-11T10:33:44.736Z,1400.63
2018-07-11T10:34:44.735Z,1406.25
2018-07-11T10:35:44.757Z,1434.38
2018-07-11T10:36:44.784Z,1344.38
2018-07-11T10:37:44.813Z,1186.88
2018-07-11T10:38:44.838Z,1141.88
2018-07-11T10:39:44.915Z,1102.50
2018-07-11T10:40:44.886Z,1113.75
2018-07-11T10:41:44.917Z,1113.75
2018-07-11T10:42:44.948Z,1035.00
2018-07-11T10:43:44.968Z,1102.50
2018-07-11T10:44:44.997Z,1141.88
2018-07-11T10:45:45.023Z,1198.13
2018-07-11T10:46:45.054Z,1231.88
2018-07-11T10:47:45.077Z,1260.00
2018-07-11T10:48:45.102Z,1147.50
2018-07-11T10:49:45.128Z,1136.25
2018-07-11T10:50:45.153Z,1164.38
2018-07-11T10:51:45.187Z,1113.75
2018-07-11T10:52:45.209Z,1113.75
2018-07-11T10:53:45.236Z,956.25
2018-07-11T10:54:45.271Z,753.75
2018-07-11T10:55:45.286Z,742.50
2018-07-11T10:56:45.316Z,1023.75
2018-07-11T10:57:45.442Z,1288.13
2018-07-11T10:58:45.372Z,1462.50
2018-07-11T10:59:45.406Z,1546.88
2018-07-11T11:01:05.032Z,1569.38
2018-07-11T11:01:45.458Z,1395.00
2018-07-11T11:02:45.614Z,1305.00
2018-07-11T11:03:45.517Z,1321.88
2018-07-11T11:04:45.552Z,1333.13
2018-07-11T11:05:45.569Z,1344.38
2018-07-11T11:06:45.594Z,1417.50
2018-07-11T11:07:45.616Z,1226.25
2018-07-11T11:08:45.648Z,1170.00
2018-07-11T11:09:45.678Z,1136.25
2018-07-11T11:10:45.704Z,1181.25
2018-07-11T11:11:45.732Z,1113.75
2018-07-11T11:12:45.756Z,1057.50
2018-07-11T11:13:45.791Z,1170.00
2018-07-11T11:14:45.818Z,1344.38
2018-07-11T11:15:45.844Z,1991.25
2018-07-11T11:16:45.868Z,3718.13
2018-07-11T11:17:45.896Z,3678.75
2018-07-11T11:18:45.940Z,3526.88
2018-07-11T11:19:45.956Z,2092.50
2018-07-11T11:20:45.992Z,1490.63
2018-07-11T11:21:46.011Z,1282.50
2018-07-11T11:22:46.040Z,1125.00
2018-07-11T11:23:46.075Z,1051.88
2018-07-11T11:24:46.098Z,1226.25
2018-07-11T11:25:46.199Z,1170.00
2018-07-11T11:26:46.160Z,1552.50
2018-07-11T11:27:46.190Z,1141.88
2018-07-11T11:28:46.219Z,1023.75
2018-07-11T11:29:46.250Z,984.38
2018-07-11T11:30:46.286Z,798.75
2018-07-11T11:31:46.306Z,663.75
2018-07-11T11:32:46.342Z,585.00
2018-07-11T11:33:46.365Z,506.25
2018-07-11T11:34:46.395Z,371.25
2018-07-11T11:35:46.521Z,258.75
2018-07-11T11:36:46.458Z,213.75
2018-07-11T11:37:46.484Z,225.00
2018-07-11T11:38:46.510Z,264.38
2018-07-11T11:39:46.538Z,286.88
2018-07-11T11:40:46.566Z,270.00
2018-07-11T11:41:46.660Z,258.75
2018-07-11T11:42:46.632Z,241.88
2018-07-11T11:43:46.657Z,225.00
2018-07-11T11:44:46.680Z,180.00
2018-07-11T11:45:46.708Z,163.13
2018-07-11T11:46:46.728Z,146.25
2018-07-11T11:47:46.757Z,95.63
2018-07-11T11:48:46.786Z,67.50
2018-07-11T11:49:46.820Z,61.88
2018-07-11T11:50:46.842Z,78.75
2018-07-11T11:51:46.877Z,101.25
2018-07-11T11:52:46.905Z,135.00
2018-07-11T11:53:46.921Z,185.63
2018-07-11T11:54:46.996Z,247.50
2018-07-11T11:55:46.985Z,292.50
2018-07-11T11:56:47.008Z,309.38
2018-07-11T11:57:47.031Z,343.13
2018-07-11T11:58:47.060Z,438.75
2018-07-11T11:59:47.084Z,556.88
2018-07-11T12:00:47.108Z,618.75
2018-07-11T12:01:47.181Z,641.25
2018-07-11T12:02:47.167Z,635.63
2018-07-11T12:03:47.188Z,618.75
2018-07-11T12:04:47.219Z,613.13
2018-07-11T12:05:47.241Z,590.63
2018-07-11T12:06:47.268Z,585.00
2018-07-11T12:07:47.300Z,573.75
2018-07-11T12:08:47.327Z,562.50
2018-07-11T12:09:47.351Z,568.13
2018-07-11T12:10:47.377Z,573.75
2018-07-11T12:11:47.399Z,585.00
2018-07-11T12:12:47.424Z,618.75
2018-07-11T12:13:47.454Z,658.13
2018-07-11T12:14:47.489Z,703.13
2018-07-11T12:15:47.506Z,759.38
2018-07-11T12:16:47.546Z,815.63
2018-07-11T12:17:47.566Z,877.50
2018-07-11T12:18:47.585Z,911.25
2018-07-11T12:19:47.616Z,933.75
2018-07-11T12:20:47.637Z,961.88
2018-07-11T12:21:47.660Z,945.00
2018-07-11T12:22:47.704Z,838.13
2018-07-11T12:23:47.715Z,793.13
2018-07-11T12:24:47.750Z,776.25
2018-07-11T12:25:47.770Z,776.25
2018-07-11T12:26:47.796Z,725.63
2018-07-11T12:27:47.826Z,703.13
2018-07-11T12:28:47.848Z,708.75
2018-07-11T12:29:47.874Z,714.38
2018-07-11T12:30:47.907Z,720.00
2018-07-11T12:31:47.924Z,725.63
2018-07-11T12:32:47.956Z,736.88
2018-07-11T12:33:47.978Z,725.63
2018-07-11T12:34:48.013Z,748.13
2018-07-11T12:35:48.033Z,753.75
2018-07-11T12:36:48.064Z,781.88
2018-07-11T12:37:48.083Z,821.25
2018-07-11T12:38:48.109Z,849.38
2018-07-11T12:39:48.131Z,871.88
2018-07-11T12:40:48.165Z,753.75
2018-07-11T12:41:48.193Z,635.63
2018-07-11T12:42:48.213Z,646.88
2018-07-11T12:43:48.246Z,658.13
2018-07-11T12:44:48.270Z,720.00